Time;durP1;ratioP1;P1;durP2;ratioP2;P2;SDS_P1;SDS_P2;PMS_P1;PMS_P2;Temp;Humidity;BMP_temperature;BMP_pressure;BME280_temperature;BME280_humidity;BME280_pressure;Samples;Min_cycle;Max_cycle;Signal;HPM_P1;HPM_P2
2021/10/04 00:00:00;;;;;;;;;3.00;1.00;;;;;13.54;65.86;100657.94;5057164;28;63456;-60
2021/10/04 00:02:26;;;;;;;;;2.75;2.50;;;;;13.52;66.35;100659.06;5057284;28;45586;-60
2021/10/04 00:04:51;;;;;;;;;2.00;2.00;;;;;13.49;65.96;100670.78;5056301;28;69671;-60
2021/10/04 00:07:17;;;;;;;;;2.00;2.00;;;;;13.48;66.36;100680.50;5057272;28;58952;-60
2021/10/04 00:09:43;;;;;;;;;2.25;1.75;;;;;13.47;66.46;100678.84;5040154;27;45238;-60
2021/10/04 00:12:08;;;;;;;;;2.25;2.25;;;;;13.47;65.97;100686.75;5057332;28;45428;-60
2021/10/04 00:14:34;;;;;;;;;2.00;2.00;;;;;13.45;66.02;100683.44;5055976;28;67554;-60
2021/10/04 00:16:59;;;;;;;;;5.50;3.00;;;;;13.45;66.40;100691.34;5057698;28;45482;-60
2021/10/04 00:19:24;;;;;;;;;2.50;2.50;;;;;13.43;66.07;100685.41;5056640;28;65560;-60
2021/10/04 00:21:50;;;;;;;;;2.00;2.00;;;;;13.41;66.67;100679.44;5056946;28;46259;-60
2021/10/04 00:24:15;;;;;;;;;3.00;3.00;;;;;13.39;66.69;100677.91;5038431;28;62720;-60
2021/10/04 00:26:41;;;;;;;;;6.75;4.75;;;;;13.35;66.53;100677.38;5037822;28;58280;-60
2021/10/04 00:29:06;;;;;;;;;2.00;2.00;;;;;13.31;66.36;100671.56;5056644;28;65612;-60
2021/10/04 00:31:31;;;;;;;;;11.00;6.00;;;;;13.31;66.74;100674.22;5057069;28;45461;-59
2021/10/04 00:33:57;;;;;;;;;2.00;2.00;;;;;13.29;66.47;100676.19;5056564;28;58471;-60
2021/10/04 00:36:22;;;;;;;;;1.00;1.00;;;;;13.28;66.48;100689.50;5055633;28;60759;-60
2021/10/04 00:38:47;;;;;;;;;3.25;2.75;;;;;13.26;66.86;100675.63;5056206;28;69386;-60
2021/10/04 00:41:13;;;;;;;;;2.00;2.00;;;;;13.23;66.58;100675.97;5055861;28;71866;-60
2021/10/04 00:43:38;;;;;;;;;5.00;3.00;;;;;13.20;66.58;100682.34;5056640;28;48016;-60
2021/10/04 00:46:04;;;;;;;;;2.75;2.25;;;;;13.17;67.06;100678.22;5055704;28;60782;-60
2021/10/04 00:48:29;;;;;;;;;2.00;2.00;;;;;13.12;66.85;100669.91;5056953;28;45420;-60
2021/10/04 00:50:54;;;;;;;;;3.00;3.00;;;;;13.11;66.66;100673.53;5056595;28;53840;-60
2021/10/04 00:53:20;;;;;;;;;4.50;4.00;;;;;13.09;67.03;100675.50;5056370;28;48481;-60
2021/10/04 00:55:45;;;;;;;;;3.00;3.00;;;;;13.05;66.71;100679.41;5055821;28;64763;-60
2021/10/04 00:58:11;;;;;;;;;2.25;2.25;;;;;13.03;67.24;100681.34;5057392;28;45264;-60
2021/10/04 01:00:36;;;;;;;;;3.00;3.00;;;;;13.00;67.31;100677.19;5038873;28;45589;-60
2021/10/04 01:03:02;;;;;;;;;2.50;1.50;;;;;12.97;67.37;100676.66;5056338;28;45506;-60
2021/10/04 01:05:27;;;;;;;;;2.00;2.00;;;;;12.93;67.57;100675.31;5056195;28;45403;-60
2021/10/04 01:07:53;;;;;;;;;5.00;3.00;;;;;12.90;66.92;100679.91;5056836;28;45441;-60
2021/10/04 01:10:19;;;;;;;;;3.00;3.00;;;;;12.87;67.15;100688.09;5056691;28;45935;-60
2021/10/04 01:12:46;;;;;;;;;2.00;2.00;;;;;12.85;66.92;100686.59;5055404;28;70731;-60
2021/10/04 01:15:11;;;;;;;;;3.50;2.00;;;;;12.82;67.66;100687.72;5055923;28;45379;-60
2021/10/04 01:17:37;;;;;;;;;3.00;2.00;;;;;12.79;67.41;100695.09;5038506;28;45497;-60
2021/10/04 01:20:18;;;;;;;;;2.50;2.00;;;;;12.74;67.63;100677.91;5056170;28;46094;-60
2021/10/04 01:22:44;;;;;;;;;1.00;1.00;;;;;12.71;67.68;100677.38;5056303;28;45331;-60
2021/10/04 01:25:10;;;;;;;;;2.00;2.00;;;;;12.67;67.21;100676.81;5055677;28;45759;-59
2021/10/04 01:27:35;;;;;;;;;4.25;3.00;;;;;12.66;67.38;100675.16;5056444;28;45511;-60
2021/10/04 01:30:01;;;;;;;;;3.00;2.25;;;;;12.65;67.48;100684.06;5056453;28;46402;-60
2021/10/04 01:32:27;;;;;;;;;3.00;2.00;;;;;12.63;67.82;100678.09;5056100;28;45554;-60
2021/10/04 01:34:55;;;;;;;;;2.00;2.00;;;;;12.62;67.81;100679.06;5036455;28;65561;-60
2021/10/04 01:37:22;;;;;;;;;3.00;2.00;;;;;12.61;67.62;100680.03;5038270;28;45483;-60
2021/10/04 01:39:48;;;;;;;;;2.25;1.00;;;;;12.59;67.79;100671.44;5037909;28;46461;-60
2021/10/04 01:42:13;;;;;;;;;1.75;1.75;;;;;12.58;67.44;100677.69;5055266;28;45778;-59
2021/10/04 01:44:39;;;;;;;;;2.00;2.00;;;;;12.56;67.91;100672.59;5055048;28;62136;-60
2021/10/04 01:47:04;;;;;;;;;3.25;2.00;;;;;12.55;68.13;100670.09;5054206;28;45462;-60
2021/10/04 01:49:30;;;;;;;;;3.75;2.50;;;;;12.56;67.73;100664.69;5054777;28;72812;-60
2021/10/04 01:51:55;;;;;;;;;2.00;2.00;;;;;12.57;68.06;100661.06;5055199;28;68869;-60
2021/10/04 01:54:20;;;;;;;;;1.25;1.00;;;;;12.57;67.77;100668.13;5055823;28;45456;-60
2021/10/04 01:56:46;;;;;;;;;3.00;2.00;;;;;12.57;68.17;100671.63;5036736;28;62500;-60
2021/10/04 01:59:11;;;;;;;;;2.00;1.00;;;;;12.55;67.70;100670.94;5055565;28;45366;-60
2021/10/04 02:01:37;;;;;;;;;1.75;1.75;;;;;12.55;68.35;100672.72;5055816;28;45544;-60
2021/10/04 02:04:02;;;;;;;;;1.00;1.00;;;;;12.54;68.06;100666.63;5054976;28;63750;-60
2021/10/04 02:06:27;;;;;;;;;1.00;1.00;;;;;12.54;68.30;100666.63;5055031;28;45458;-60
2021/10/04 02:08:53;;;;;;;;;3.00;1.25;;;;;12.56;67.82;100669.09;5036588;28;68462;-60
2021/10/04 02:11:18;;;;;;;;;3.75;2.00;;;;;12.57;67.93;100674.25;5055824;28;45458;-60
2021/10/04 02:13:43;;;;;;;;;4.50;1.50;;;;;12.59;68.47;100674.09;5055295;28;64010;-60
2021/10/04 02:16:09;;;;;;;;;3.00;3.00;;;;;12.59;68.28;100669.66;5054134;28;68494;-60
2021/10/04 02:18:34;;;;;;;;;2.00;2.00;;;;;12.60;68.07;100687.13;5036647;28;70365;-60
2021/10/04 02:21:00;;;;;;;;;3.50;2.00;;;;;12.60;68.06;100681.88;5054552;28;66662;-60
2021/10/04 02:23:25;;;;;;;;;2.00;1.00;;;;;12.62;67.71;100676.44;5051317;28;57154;-60
2021/10/04 02:25:54;;;;;;;;;2.00;1.50;;;;;12.60;67.90;100676.59;5054669;28;45387;-60
2021/10/04 02:28:19;;;;;;;;;1.75;1.75;;;;;12.61;67.90;100672.97;5036980;28;46800;-60
2021/10/04 02:30:45;;;;;;;;;1.00;1.00;;;;;12.62;67.45;100673.81;5055263;28;45190;-60
2021/10/04 02:33:11;;;;;;;;;1.00;1.00;;;;;12.61;67.84;100678.25;5055271;28;45688;-60
2021/10/04 02:35:37;;;;;;;;;1.00;1.00;;;;;12.58;67.56;100675.91;5053765;28;66734;-60
2021/10/04 02:38:02;;;;;;;;;1.25;1.25;;;;;12.57;67.37;100682.16;5036922;28;45468;-60
2021/10/04 02:40:28;;;;;;;;;2.25;1.00;;;;;12.55;67.80;100673.56;5055154;28;45512;-60
2021/10/04 02:42:53;;;;;;;;;2.00;0.75;;;;;12.57;67.58;100665.50;5054836;28;52538;-60
2021/10/04 02:45:19;;;;;;;;;0.75;0.75;;;;;12.55;67.93;100656.91;5053777;28;62784;-60
2021/10/04 02:47:45;;;;;;;;;1.25;1.00;;;;;12.53;67.40;100662.34;5054819;28;46176;-60
2021/10/04 02:50:11;;;;;;;;;1.00;1.00;;;;;12.50;67.54;100661.78;5054991;28;45519;-60
2021/10/04 02:52:37;;;;;;;;;1.25;1.00;;;;;12.49;67.49;100660.97;5037175;28;45337;-60
2021/10/04 02:55:03;;;;;;;;;1.00;1.00;;;;;12.48;67.53;100667.22;5054460;28;45344;-60
2021/10/04 02:57:28;;;;;;;;;1.00;1.00;;;;;12.47;68.22;100661.09;5054715;28;46411;-59
2021/10/04 02:59:54;;;;;;;;;1.25;1.00;;;;;12.49;67.62;100662.75;5054104;28;68556;-60
2021/10/04 03:02:19;;;;;;;;;1.75;1.75;;;;;12.47;68.00;100676.91;5054078;28;64105;-60
2021/10/04 03:04:44;;;;;;;;;2.25;1.00;;;;;12.46;67.76;100669.97;5053601;28;65126;-60
2021/10/04 03:07:10;;;;;;;;;1.00;1.00;;;;;12.46;67.97;100669.16;5053819;28;70249;-60
2021/10/04 03:09:35;;;;;;;;;1.00;1.00;;;;;12.45;67.46;100676.22;5053854;28;67967;-60
2021/10/04 03:12:01;;;;;;;;;1.00;1.00;;;;;12.46;67.86;100669.16;5055150;28;45708;-60
2021/10/04 03:14:26;;;;;;;;;1.00;1.00;;;;;12.44;67.23;100671.94;5054205;28;45264;-60
2021/10/04 03:16:52;;;;;;;;;5.00;5.00;;;;;12.42;68.05;100675.69;5054623;28;56188;-60
2021/10/04 03:19:17;;;;;;;;;4.00;1.50;;;;;12.41;67.99;100681.94;5054937;28;45307;-60
2021/10/04 03:21:43;;;;;;;;;1.00;1.00;;;;;12.40;67.93;100685.53;5054949;28;45498;-60
2021/10/04 03:24:10;;;;;;;;;2.00;1.50;;;;;12.39;67.76;100675.97;5054779;28;45505;-60
2021/10/04 03:26:35;;;;;;;;;1.00;1.00;;;;;12.38;67.58;100676.94;5053856;28;46193;-60
2021/10/04 03:29:00;;;;;;;;;2.75;1.00;;;;;12.39;67.56;100681.25;5054524;28;45479;-60
2021/10/04 03:31:26;;;;;;;;;1.00;1.00;;;;;12.37;67.35;100684.03;5053771;28;68978;-60
2021/10/04 03:33:51;;;;;;;;;1.50;1.50;;;;;12.37;67.47;100680.56;5054728;28;45661;-60
2021/10/04 03:36:17;;;;;;;;;1.50;1.00;;;;;12.35;67.57;100678.09;5052689;28;75274;-60
2021/10/04 03:38:42;;;;;;;;;1.25;1.00;;;;;12.36;67.24;100673.63;5053680;28;63075;-60
2021/10/04 03:41:07;;;;;;;;;1.25;1.25;;;;;12.34;67.19;100672.94;5054389;28;45329;-59
2021/10/04 03:43:33;;;;;;;;;1.75;1.75;;;;;12.33;67.46;100672.13;5053565;28;68176;-60
2021/10/04 03:45:58;;;;;;;;;2.25;1.25;;;;;12.32;67.08;100663.38;5034628;28;69268;-60
2021/10/04 03:48:23;;;;;;;;;1.00;1.00;;;;;12.31;67.53;100677.53;5053918;28;55901;-60
2021/10/04 03:50:49;;;;;;;;;2.00;0.25;;;;;12.29;67.54;100679.47;5036229;28;45698;-60
2021/10/04 03:53:14;;;;;;;;;1.00;1.00;;;;;12.27;67.32;100681.41;5054270;28;45413;-60
2021/10/04 03:55:40;;;;;;;;;2.00;1.00;;;;;12.26;67.59;100689.47;5052948;28;64944;-60
2021/10/04 03:58:05;;;;;;;;;1.75;1.75;;;;;12.24;67.11;100692.25;5053166;28;45498;-60
2021/10/04 04:00:30;;;;;;;;;2.00;2.00;;;;;12.23;67.04;100692.41;5053458;28;57261;-60
2021/10/04 04:02:56;;;;;;;;;2.00;1.00;;;;;12.22;67.24;100696.00;5053146;28;63483;-60
2021/10/04 04:05:21;;;;;;;;;2.75;1.75;;;;;12.21;67.46;100700.44;5035342;28;45253;-59
2021/10/04 04:07:47;;;;;;;;;2.00;1.25;;;;;12.19;67.67;100705.00;5054233;28;45380;-59
2021/10/04 04:10:12;;;;;;;;;1.25;1.00;;;;;12.17;66.96;100706.97;5036225;28;54084;-60
2021/10/04 04:12:38;;;;;;;;;1.00;1.00;;;;;12.17;67.06;100701.72;5039444;28;45472;-60
2021/10/04 04:15:04;;;;;;;;;2.25;1.00;;;;;12.14;67.51;100702.00;5056913;28;46384;-60
2021/10/04 04:17:29;;;;;;;;;1.00;1.00;;;;;12.10;67.79;100697.97;5039443;28;45352;-60
2021/10/04 04:19:55;;;;;;;;;1.00;1.00;;;;;12.08;67.51;100702.56;5056766;28;59880;-60
2021/10/04 04:22:20;;;;;;;;;1.75;1.00;;;;;12.07;67.96;100708.81;5052894;28;69348;-59
2021/10/04 04:24:46;;;;;;;;;1.25;0.00;;;;;12.07;67.77;100711.44;5056985;28;46576;-60
2021/10/04 04:27:11;;;;;;;;;1.75;1.75;;;;;12.06;67.54;100715.03;5056468;28;70253;-59
2021/10/04 04:29:38;;;;;;;;;6.25;5.25;;;;;12.02;67.48;100711.84;5039019;28;45401;-60
2021/10/04 04:32:05;;;;;;;;;2.00;1.50;;;;;12.00;67.63;100717.25;5038235;28;62272;-60
2021/10/04 04:34:30;;;;;;;;;2.00;2.00;;;;;12.00;67.49;100726.94;5056235;28;46008;-60
2021/10/04 04:36:55;;;;;;;;;2.25;2.25;;;;;11.97;67.86;100728.03;5038762;28;50592;-60
2021/10/04 04:39:21;;;;;;;;;3.00;2.00;;;;;11.98;67.76;100723.59;5038788;28;45567;-60
2021/10/04 04:41:46;;;;;;;;;3.00;2.00;;;;;11.97;67.33;100735.94;5056761;28;45577;-60
2021/10/04 04:44:12;;;;;;;;;1.25;1.25;;;;;11.96;67.43;100738.69;5056074;28;68663;-60
2021/10/04 04:46:37;;;;;;;;;5.00;3.25;;;;;11.93;67.29;100734.56;5037151;28;63894;-60
2021/10/04 04:49:02;;;;;;;;;2.00;2.00;;;;;11.92;67.40;100742.63;5056340;28;54970;-59
2021/10/04 04:51:28;;;;;;;;;3.00;1.75;;;;;11.90;67.74;100736.66;5055926;28;59677;-60
2021/10/04 04:53:53;;;;;;;;;4.25;2.00;;;;;11.87;67.75;100737.75;5055950;28;72064;-60
2021/10/04 04:56:18;;;;;;;;;2.75;2.00;;;;;11.85;67.75;100744.97;5055033;28;68626;-60
2021/10/04 04:58:44;;;;;;;;;3.75;2.50;;;;;11.81;67.43;100746.19;5056899;28;45867;-60
2021/10/04 05:01:09;;;;;;;;;4.00;3.00;;;;;11.79;67.86;100750.78;5055386;28;64728;-60
2021/10/04 05:03:35;;;;;;;;;4.00;1.50;;;;;11.74;67.38;100753.84;5055362;28;72410;-60
2021/10/04 05:06:00;;;;;;;;;3.00;3.00;;;;;11.72;67.24;100759.22;5054854;28;72342;-60
2021/10/04 05:08:25;;;;;;;;;3.00;3.00;;;;;11.68;67.13;100752.56;5055765;28;61777;-59
2021/10/04 05:10:51;;;;;;;;;4.00;4.00;;;;;11.65;67.04;100755.50;5055897;28;61795;-60
2021/10/04 05:13:16;;;;;;;;;6.25;6.25;;;;;11.60;67.34;100751.59;5055404;28;72743;-60
2021/10/04 05:15:41;;;;;;;;;4.00;4.00;;;;;11.54;67.13;100756.44;5070394;28;59086;-60
2021/10/04 05:18:07;;;;;;;;;4.75;3.75;;;;;11.51;67.18;100750.63;5056609;28;45737;-60
2021/10/04 05:20:32;;;;;;;;;4.25;3.00;;;;;11.46;67.24;100747.59;5055599;28;61820;-60
2021/10/04 05:22:58;;;;;;;;;3.00;3.00;;;;;11.43;67.08;100757.41;5036659;28;45340;-60
2021/10/04 05:25:23;;;;;;;;;4.25;4.00;;;;;11.39;67.18;100757.81;5055534;28;45367;-60
2021/10/04 05:27:48;;;;;;;;;5.00;4.00;;;;;11.36;67.15;100758.09;5056160;28;45191;-59
2021/10/04 05:30:14;;;;;;;;;4.00;4.00;;;;;11.30;67.17;100762.09;5055430;28;66132;-60
2021/10/04 05:32:39;;;;;;;;;5.25;4.00;;;;;11.26;67.67;100771.22;5055833;28;46098;-59
2021/10/04 05:35:05;;;;;;;;;3.00;3.00;;;;;11.20;67.29;100758.59;5054358;28;70100;-60
2021/10/04 05:37:30;;;;;;;;;4.00;4.00;;;;;11.17;67.08;100761.50;5037048;28;45467;-60
2021/10/04 05:39:56;;;;;;;;;10.75;4.50;;;;;11.12;67.78;100759.28;5055151;28;55747;-60
2021/10/04 05:42:21;;;;;;;;;8.00;7.00;;;;;11.08;67.97;100758.72;5055241;28;45574;-60
2021/10/04 05:44:47;;;;;;;;;13.00;11.00;;;;;11.06;67.82;100765.91;5055182;28;45370;-60
2021/10/04 05:47:12;;;;;;;;;6.00;5.50;;;;;11.03;68.14;100758.28;5055195;28;45481;-60
2021/10/04 05:49:39;;;;;;;;;6.00;6.00;;;;;11.01;68.54;100767.25;5055221;28;45640;-60
2021/10/04 05:52:04;;;;;;;;;6.75;5.50;;;;;10.99;68.39;100755.06;5053669;28;46389;-59
2021/10/04 05:54:30;;;;;;;;;5.75;5.25;;;;;11.01;68.42;100762.00;5053196;28;46392;-60
2021/10/04 05:56:55;;;;;;;;;6.50;5.00;;;;;10.99;68.04;100765.59;5053029;28;67247;-60
2021/10/04 05:59:20;;;;;;;;;6.25;6.25;;;;;10.98;68.24;100758.66;5035802;28;45486;-59
2021/10/04 06:01:46;;;;;;;;;5.25;4.25;;;;;10.98;68.69;100768.38;5053587;28;68832;-60
2021/10/04 06:04:11;;;;;;;;;7.25;5.75;;;;;10.95;68.54;100773.91;5053239;28;65327;-60
2021/10/04 06:06:37;;;;;;;;;3.00;3.00;;;;;10.95;68.44;100763.38;5053925;28;68973;-59
2021/10/04 06:09:02;;;;;;;;;7.50;4.50;;;;;10.95;68.70;100771.25;5055377;28;45307;-60
2021/10/04 06:11:29;;;;;;;;;5.50;5.25;;;;;10.95;68.65;100779.16;5053872;28;66630;-60
2021/10/04 06:13:54;;;;;;;;;5.75;4.75;;;;;10.95;68.82;100779.16;5036586;28;45800;-60
2021/10/04 06:16:20;;;;;;;;;3.25;3.00;;;;;10.94;68.64;100782.75;5050967;28;55244;-60
2021/10/04 06:18:45;;;;;;;;;4.25;4.25;;;;;10.94;69.10;100783.56;5054814;28;68047;-60
2021/10/04 06:21:10;;;;;;;;;3.25;3.25;;;;;10.95;69.38;100787.84;5054137;28;73554;-60
2021/10/04 06:23:36;;;;;;;;;8.00;7.00;;;;;10.95;68.97;100792.28;5053731;28;64446;-60
2021/10/04 06:26:01;;;;;;;;;6.25;6.25;;;;;10.96;69.50;100794.78;5054539;28;45597;-60
2021/10/04 06:28:27;;;;;;;;;8.00;7.00;;;;;10.96;69.38;100796.59;5051904;28;45642;-61
2021/10/04 06:30:52;;;;;;;;;6.00;6.00;;;;;10.96;69.41;100807.94;5054270;28;70728;-60
2021/10/04 06:33:17;;;;;;;;;6.25;6.00;;;;;10.96;69.18;100800.03;5054005;28;61253;-61
2021/10/04 06:35:43;;;;;;;;;8.50;8.25;;;;;10.97;69.36;100809.59;5053424;28;65564;-60
2021/10/04 06:38:08;;;;;;;;;4.25;4.25;;;;;10.98;69.57;100815.69;5054390;28;45482;-60
2021/10/04 06:40:34;;;;;;;;;7.50;5.00;;;;;11.01;69.69;100811.97;5054522;28;48678;-61
2021/10/04 06:42:59;;;;;;;;;6.00;5.50;;;;;11.03;69.21;100825.81;5053893;28;69995;-61
2021/10/04 06:45:24;;;;;;;;;8.00;5.00;;;;;10.99;69.53;100820.81;5054218;28;45794;-61
2021/10/04 06:47:50;;;;;;;;;5.75;5.50;;;;;11.00;69.68;100821.66;5054187;28;60130;-60
2021/10/04 06:50:15;;;;;;;;;8.00;5.75;;;;;11.01;69.48;100812.81;5054177;28;64951;-60
2021/10/04 06:52:41;;;;;;;;;6.00;6.00;;;;;11.05;69.92;100816.00;5054879;28;45317;-60
2021/10/04 06:55:07;;;;;;;;;4.00;4.00;;;;;11.07;69.65;100820.16;5054254;28;45571;-61
2021/10/04 06:57:32;;;;;;;;;5.25;4.00;;;;;11.09;69.90;100807.72;5054811;28;45357;-60
2021/10/04 06:59:57;;;;;;;;;3.25;3.25;;;;;11.13;69.86;100816.16;5053554;28;74226;-60
2021/10/04 07:02:23;;;;;;;;;4.00;3.00;;;;;11.20;69.93;100816.44;5054598;28;45268;-61
2021/10/04 07:04:48;;;;;;;;;4.00;4.00;;;;;11.25;70.29;100822.16;5053929;28;45280;-61
2021/10/04 07:07:14;;;;;;;;;4.00;3.00;;;;;11.29;70.04;100813.03;5054255;28;61357;-61
2021/10/04 07:09:42;;;;;;;;;3.50;3.50;;;;;11.34;70.12;100816.09;5036646;28;46311;-60
2021/10/04 07:12:08;;;;;;;;;2.50;2.00;;;;;11.40;69.86;100819.97;5053932;28;68321;-61
2021/10/04 07:14:33;;;;;;;;;9.75;9.50;;;;;11.45;69.50;100827.47;5054288;28;45575;-61
2021/10/04 07:16:59;;;;;;;;;4.75;2.25;;;;;11.50;69.89;100827.91;5054794;28;45399;-60
2021/10/04 07:19:24;;;;;;;;;3.75;3.75;;;;;11.56;69.54;100836.09;5049918;28;71637;-61
2021/10/04 07:21:52;;;;;;;;;4.25;4.00;;;;;11.65;69.34;100845.00;5035852;28;45360;-61
2021/10/04 07:24:20;;;;;;;;;5.75;4.00;;;;;11.71;69.34;100844.41;5054145;28;45428;-60
2021/10/04 07:26:47;;;;;;;;;4.50;3.50;;;;;11.77;69.19;100842.22;5053662;28;45493;-60
2021/10/04 07:29:13;;;;;;;;;3.00;3.00;;;;;11.83;69.34;100841.66;5054229;28;45519;-60
2021/10/04 07:31:38;;;;;;;;;3.00;3.00;;;;;11.88;68.86;100844.72;5054083;28;46203;-60
2021/10/04 07:34:06;;;;;;;;;6.00;3.00;;;;;11.95;69.40;100848.47;5053929;28;57336;-59
2021/10/04 07:36:31;;;;;;;;;5.00;2.00;;;;;12.02;68.88;100844.38;5035964;28;45373;-60
2021/10/04 07:38:57;;;;;;;;;2.25;2.00;;;;;12.11;69.05;100853.22;5054193;28;46391;-60
2021/10/04 07:41:22;;;;;;;;;1.50;1.50;;;;;12.16;68.81;100855.47;5053295;28;64966;-60
2021/10/04 07:43:47;;;;;;;;;5.00;2.00;;;;;12.23;68.58;100847.81;5054086;28;45844;-60
2021/10/04 07:46:13;;;;;;;;;1.50;1.50;;;;;12.32;68.06;100853.09;5055077;28;65512;-60
2021/10/04 07:48:38;;;;;;;;;1.00;1.00;;;;;12.42;68.00;100854.88;5039690;28;46088;-60
2021/10/04 07:51:04;;;;;;;;;3.00;2.00;;;;;12.58;67.24;100863.06;5057029;28;64566;-60
2021/10/04 07:53:31;;;;;;;;;1.25;1.25;;;;;12.77;67.33;100861.34;5057571;28;45478;-60
2021/10/04 07:55:57;;;;;;;;;2.00;2.00;;;;;12.98;66.76;100870.88;5056905;28;45497;-60
2021/10/04 07:58:22;;;;;;;;;2.00;2.00;;;;;13.23;66.37;100873.84;5057573;28;45694;-60
2021/10/04 08:00:47;;;;;;;;;1.75;1.75;;;;;13.47;66.28;100884.72;5057339;28;45652;-60
2021/10/04 08:03:13;;;;;;;;;1.25;1.00;;;;;13.73;65.28;100884.06;5056942;28;62450;-60
2021/10/04 08:05:38;;;;;;;;;3.75;2.00;;;;;13.99;65.04;100877.22;5038358;28;52218;-60
2021/10/04 08:08:04;;;;;;;;;2.00;1.00;;;;;14.26;64.65;100878.94;5056566;28;66551;-60
2021/10/04 08:10:30;;;;;;;;;2.25;2.25;;;;;14.49;63.64;100879.31;5057609;28;45356;-60
2021/10/04 08:12:57;;;;;;;;;2.75;1.00;;;;;14.72;62.51;100875.34;5057923;28;45374;-60
2021/10/04 08:15:22;;;;;;;;;2.00;1.75;;;;;14.88;62.32;100878.09;5057002;28;45212;-60
2021/10/04 08:17:48;;;;;;;;;2.00;1.50;;;;;15.07;61.94;100870.94;5056724;28;62923;-60
2021/10/04 08:20:14;;;;;;;;;4.50;1.50;;;;;15.25;61.82;100868.19;5058884;28;45240;-60
2021/10/04 08:22:39;;;;;;;;;3.50;2.00;;;;;15.46;61.33;100878.38;5058560;28;45507;-60
2021/10/04 08:25:06;;;;;;;;;1.50;0.50;;;;;15.69;60.62;100881.25;5057995;28;61468;-60
2021/10/04 08:27:31;;;;;;;;;1.00;0.00;;;;;15.95;60.63;100879.53;5058503;28;49329;-60
2021/10/04 08:29:56;;;;;;;;;2.50;0.50;;;;;16.19;59.44;100875.25;5040679;28;45537;-60
2021/10/04 08:32:22;;;;;;;;;2.00;0.75;;;;;16.38;59.23;100874.09;5058359;28;53324;-60
2021/10/04 08:34:47;;;;;;;;;1.75;0.75;;;;;16.57;59.12;100875.59;5057444;28;64077;-60
2021/10/04 08:37:13;;;;;;;;;1.50;0.75;;;;;16.77;58.80;100873.38;5057367;28;67687;-60
2021/10/04 08:39:38;;;;;;;;;3.25;1.25;;;;;17.01;58.53;100872.53;5058267;28;45506;-60
2021/10/04 08:42:03;;;;;;;;;3.25;2.00;;;;;17.22;57.90;100873.81;5057928;28;55549;-60
2021/10/04 08:44:29;;;;;;;;;3.25;1.50;;;;;17.40;57.47;100878.88;5039544;28;66818;-60
2021/10/04 08:46:54;;;;;;;;;2.25;1.00;;;;;17.60;56.24;100873.97;5039082;28;71231;-60
2021/10/04 08:49:20;;;;;;;;;2.75;2.00;;;;;17.79;56.59;100878.00;5058031;28;45457;-60
2021/10/04 08:51:47;;;;;;;;;1.50;1.50;;;;;17.99;55.13;100868.78;5058400;28;45748;-60
2021/10/04 08:54:13;;;;;;;;;1.25;1.00;;;;;18.10;54.78;100879.00;5058078;28;45411;-60
2021/10/04 08:56:39;;;;;;;;;1.00;0.50;;;;;18.22;55.15;100877.59;5057703;28;46551;-60
2021/10/04 08:59:04;;;;;;;;;2.50;1.00;;;;;18.37;54.47;100874.97;5057961;28;45705;-60
2021/10/04 09:01:30;;;;;;;;;2.00;2.00;;;;;18.51;54.46;100867.19;5039514;28;61116;-61
2021/10/04 09:03:59;;;;;;;;;2.00;1.00;;;;;18.65;53.43;100860.25;5040120;28;45622;-61
2021/10/04 09:06:28;;;;;;;;;2.00;1.00;;;;;18.76;53.45;100862.47;5057858;28;47803;-60
2021/10/04 09:08:58;;;;;;;;;2.50;1.00;;;;;18.88;53.14;100865.50;5057796;28;45384;-60
2021/10/04 09:11:30;;;;;;;;;1.00;1.00;;;;;18.99;53.10;100866.94;5058294;28;45324;-61
2021/10/04 09:14:02;;;;;;;;;2.75;1.75;;;;;19.09;52.44;100870.13;5057808;28;45454;-60
2021/10/04 09:16:49;;;;;;;;;2.00;1.00;;;;;19.15;52.01;100876.56;5040232;28;46616;-61
2021/10/04 09:19:34;;;;;;;;;2.50;1.00;;;;;19.18;51.50;100865.53;5040110;28;45268;-60
2021/10/04 09:22:06;;;;;;;;;1.00;1.00;;;;;19.19;51.33;100871.69;5057401;28;45370;-60
2021/10/04 09:24:31;;;;;;;;;1.00;1.00;;;;;19.15;51.97;100871.22;5058054;28;45379;-60
2021/10/04 09:26:57;;;;;;;;;1.00;1.00;;;;;19.17;52.55;100871.03;5057696;28;46092;-60
2021/10/04 09:29:24;;;;;;;;;2.25;2.25;;;;;19.23;52.11;100857.81;5057537;28;49156;-61
2021/10/04 09:31:50;;;;;;;;;1.00;1.00;;;;;19.33;52.12;100859.38;5057804;28;45221;-61
2021/10/04 09:34:20;;;;;;;;;4.00;1.50;;;;;19.42;51.71;100859.06;5057303;28;46276;-60
2021/10/04 09:36:55;;;;;;;;;3.00;3.00;;;;;19.51;51.41;100866.97;5057202;28;46692;-61
2021/10/04 09:39:33;;;;;;;;;4.00;3.50;;;;;19.49;51.47;100855.66;5057221;28;45288;-61
2021/10/04 09:42:07;;;;;;;;;1.00;1.00;;;;;19.54;51.68;100863.94;5057280;28;45309;-61
2021/10/04 09:44:54;;;;;;;;;1.00;1.00;;;;;19.66;51.59;100865.06;5057210;28;45237;-61
2021/10/04 09:47:19;;;;;;;;;2.00;2.00;;;;;19.78;51.24;100873.41;5057106;28;45287;-60
2021/10/04 09:49:52;;;;;;;;;2.25;0.00;;;;;19.85;50.07;100873.47;5057009;28;45297;-61
2021/10/04 09:52:17;;;;;;;;;1.25;1.00;;;;;19.85;50.75;100870.81;5057159;28;45269;-60
2021/10/04 09:54:43;;;;;;;;;0.00;0.00;;;;;19.85;50.65;100870.81;5057337;28;45572;-60
2021/10/04 09:57:19;;;;;;;;;4.50;2.50;;;;;19.94;50.48;100866.19;5057099;28;45495;-60
2021/10/04 09:59:44;;;;;;;;;2.25;1.25;;;;;20.01;50.80;100867.94;5038062;28;45648;-60
2021/10/04 10:02:12;;;;;;;;;3.00;1.00;;;;;20.10;50.79;100863.28;5039463;28;45394;-60
2021/10/04 10:04:38;;;;;;;;;1.00;1.00;;;;;20.24;50.53;100866.88;5039669;28;45459;-61
2021/10/04 10:07:04;;;;;;;;;0.00;0.00;;;;;;;;5057159;28;45351;-60
2021/10/04 10:09:29;;;;;;;;;1.00;1.00;;;;;20.61;50.08;100856.94;5037695;28;70739;-60
2021/10/04 10:11:54;;;;;;;;;3.50;1.00;;;;;20.78;49.17;100859.31;5038259;28;63139;-60
2021/10/04 10:14:20;;;;;;;;;1.00;1.00;;;;;20.85;49.18;100857.50;5057189;28;45537;-61
2021/10/04 10:16:50;;;;;;;;;0.00;0.00;;;;;20.88;48.01;100857.13;5056535;28;63526;-61
2021/10/04 10:19:15;;;;;;;;;0.75;0.75;;;;;20.88;49.03;100865.13;5023673;28;45698;-60
2021/10/04 10:21:41;;;;;;;;;1.00;0.25;;;;;20.89;48.43;100868.63;5038894;28;45315;-60
2021/10/04 10:24:07;;;;;;;;;1.75;1.00;;;;;20.95;48.51;100865.16;5056758;28;45276;-61
2021/10/04 10:26:59;;;;;;;;;3.00;2.00;;;;;21.02;48.10;100862.53;5056563;28;46287;-60
2021/10/04 10:29:28;;;;;;;;;0.00;0.00;;;;;21.07;48.37;100851.25;5054610;28;45343;-60
2021/10/04 10:31:55;;;;;;;;;1.75;1.00;;;;;21.20;48.36;100862.81;5056522;28;45314;-60
2021/10/04 10:34:23;;;;;;;;;2.00;1.00;;;;;21.29;48.76;100865.31;5056679;28;45514;-60
2021/10/04 10:37:12;;;;;;;;;3.00;0.50;;;;;21.43;47.91;100861.69;5056535;28;46454;-60
2021/10/04 10:39:47;;;;;;;;;3.00;2.00;;;;;21.54;47.70;100860.28;5050689;28;45374;-60
2021/10/04 10:42:19;;;;;;;;;53.25;42.50;;;;;21.65;47.99;100858.91;5056706;28;45387;-61
2021/10/04 10:44:57;;;;;;;;;3.00;1.00;;;;;21.69;47.25;100859.31;5056104;28;45225;-60
2021/10/04 10:47:37;;;;;;;;;1.00;0.00;;;;;21.66;46.92;100860.56;5056695;28;46466;-60
2021/10/04 10:50:30;;;;;;;;;0.75;0.50;;;;;21.61;47.35;100868.31;5056603;28;45701;-60
2021/10/04 10:52:55;;;;;;;;;3.25;0.00;;;;;21.45;47.34;100862.31;5056558;28;45387;-60
2021/10/04 10:55:21;;;;;;;;;0.67;0.33;;;;;21.31;47.64;100866.78;5056670;28;45495;-60
2021/10/04 10:57:52;;;;;;;;;4.00;0.33;;;;;21.20;48.05;100857.47;5054731;28;47516;-60
2021/10/04 11:00:18;;;;;;;;;0.25;0.00;;;;;21.09;47.58;100865.22;5056450;28;45397;-60
2021/10/04 11:02:50;;;;;;;;;0.75;0.00;;;;;21.04;47.81;100861.31;5056528;28;45538;-60
2021/10/04 11:05:37;;;;;;;;;1.00;0.50;;;;;21.02;48.85;100860.69;5038582;28;45532;-60
2021/10/04 11:08:12;;;;;;;;;2.75;0.50;;;;;20.96;48.22;100857.97;5056326;28;45448;-60
2021/10/04 11:10:53;;;;;;;;;1.00;1.00;;;;;20.88;48.84;100858.97;5038364;28;45773;-60
2021/10/04 11:13:27;;;;;;;;;0.00;0.00;;;;;20.81;49.36;100853.56;5056462;28;45305;-60
2021/10/04 11:15:54;;;;;;;;;0.00;0.00;;;;;20.83;49.12;100848.88;5056380;28;45372;-60
2021/10/04 11:18:20;;;;;;;;;2.00;1.00;;;;;20.96;49.03;100856.13;5055685;28;45481;-60
2021/10/04 11:20:45;;;;;;;;;1.25;1.00;;;;;21.09;49.31;100850.03;5057675;28;45345;-60
2021/10/04 11:23:13;;;;;;;;;4.75;1.00;;;;;21.24;48.84;100846.38;5058984;28;61611;-60